Bethalto, Illinois
Current Conditions -  °F | °C
As of 12:50 PM on Thursday 18 Dec 2014 (Local Time) from KALN Reporting Station
Overcast Overcast  
Wind Chill: -3°   Ceiling: 4800
Heat Index:   Visibility: 10mi
Dew Point: -4°   Wind: 5mph
Humidity: 75%   Direction: NA
Pressure: 30.25"   Gusts: NA
Location:  38.91°N, 90.04°W
Report Text: KALN 181850Z VRB04KT 10SM OVC048 00/M04 A3025
Loading
Personal Weather Stations






























Interactive Weather Map New forecast layout! Learn more

10-Day Weather Forecast

Advertisements
Track Severe Weather on mobile